Time;durP1;ratioP1;P1;durP2;ratioP2;P2;SDS_P1;SDS_P2;PMS_P1;PMS_P2;Temp;Humidity;BMP_temperature;BMP_pressure;BME280_temperature;BME280_humidity;BME280_pressure;Samples;Min_cycle;Max_cycle;Signal;HPM_P1;HPM_P2
2021/06/22 18:12:31;;;;;;;;;;;;;;;;;;;;;
2021/06/22 18:16:17;;;;;;;7.85;3.65;;;;;;;27.85;54.23;99682.06;2435725;78;25821;-86
2021/06/22 18:19:56;;;;;;;12.07;3.05;;;;;;;27.50;54.81;99675.55;2381812;82;25774;-87
2021/06/22 18:23:25;;;;;;;12.35;3.50;;;;;;;27.40;55.00;99663.17;2381636;81;25667;-89
2021/06/22 18:26:56;;;;;;;9.10;4.08;;;;;;;27.51;55.09;99666.59;2364310;81;25676;-88
2021/06/22 18:30:41;;;;;;;9.85;3.67;;;;;;;27.52;54.94;99679.88;2324882;83;26256;-87
2021/06/22 18:34:21;;;;;;;7.62;3.02;;;;;;;27.54;55.08;99691.85;2231769;86;25702;-89
2021/06/22 18:38:01;;;;;;;13.90;3.98;;;;;;;27.44;55.56;99705.34;2235083;87;25720;-83
2021/06/22 18:41:44;;;;;;;5.67;3.52;;;;;;;27.37;55.45;99718.69;2240122;86;25899;-83
2021/06/22 18:45:24;;;;;;;8.90;3.83;;;;;;;27.37;56.09;99733.41;2245256;86;25850;-80
2021/06/22 18:49:01;;;;;;;9.20;3.80;;;;;;;27.19;56.45;99729.96;2174522;89;25759;-85
2021/06/22 18:52:41;;;;;;;7.78;3.77;;;;;;;27.18;56.46;99735.80;2104147;92;26683;-81
2021/06/22 18:56:27;;;;;;;8.13;3.98;;;;;;;27.31;56.37;99738.66;2104991;91;25721;-81
2021/06/22 19:04:02;;;;;;;;;;;;;;;;;;;;;
2021/06/22 19:07:35;;;;;;;6.15;4.00;;;;;;;27.48;56.33;99749.28;1852885;104;26290;-86
2021/06/22 19:11:27;;;;;;;9.48;5.50;;;;;;;27.39;56.27;99756.48;1880962;103;26062;-86
2021/06/22 19:15:16;;;;;;;;;;;;;;;;;;;;;
2021/06/22 19:18:45;;;;;;;10.00;4.30;;;;;;;27.34;56.41;99757.22;1766813;109;26260;-78
2021/06/22 19:22:23;;;;;;;;;;;;;;;;;;;;;
2021/06/22 19:25:45;;;;;;;9.58;4.10;;;;;;;26.88;57.44;99783.77;1819503;106;25799;-78
2021/06/22 19:29:18;;;;;;;4.40;4.00;;;;;;;26.77;57.09;99780.33;1821506;108;25896;-79
2021/06/22 19:32:49;;;;;;;6.62;3.85;;;;;;;26.61;57.08;99782.08;1797197;107;26095;-80
2021/06/22 19:36:20;;;;;;;5.80;4.28;;;;;;;26.59;57.17;99787.96;1799961;107;25444;-81
2021/06/22 19:43:31;;;;;;;9.08;6.05;;;;;;;26.57;57.59;99776.50;1827453;108;26130;-81
2021/06/22 19:46:57;;;;;;;10.15;5.00;;;;;;;26.54;57.77;99796.23;1800817;108;25931;-79
2021/06/22 19:51:06;;;;;;;11.40;5.03;;;;;;;26.59;57.78;99797.32;1789910;108;25581;-82
2021/06/22 19:54:26;;;;;;;6.03;5.43;;;;;;;26.63;57.89;99797.58;1812785;106;25829;-81
2021/06/22 19:57:49;;;;;;;8.70;5.17;;;;;;;26.77;57.51;99786.16;1870145;104;25825;-79
2021/06/22 20:01:12;;;;;;;8.75;5.50;;;;;;;26.77;57.29;99793.70;1902710;101;25808;-81
2021/06/22 20:04:34;;;;;;;7.97;6.03;;;;;;;26.71;57.25;99802.52;1906727;102;25843;-77
2021/06/22 20:07:55;;;;;;;9.00;5.45;;;;;;;26.77;57.46;99819.58;1883120;103;25843;-78
2021/06/22 20:11:28;;;;;;;8.55;5.25;;;;;;;26.75;57.28;99833.50;1933866;100;26090;-78
2021/06/22 20:14:52;;;;;;;10.43;5.37;;;;;;;26.62;57.32;99839.94;1915201;100;25961;-79
2021/06/22 20:18:15;;;;;;;9.73;5.55;;;;;;;26.59;57.58;99841.44;1925132;99;25858;-78
2021/06/22 20:21:41;;;;;;;10.95;5.45;;;;;;;26.41;57.46;99831.18;2018664;93;25941;-77
2021/06/22 20:25:03;;;;;;;5.03;4.45;;;;;;;26.20;58.06;99818.44;1993928;96;25836;-84
2021/06/22 20:28:29;;;;;;;6.87;5.65;;;;;;;26.18;58.22;99822.11;2011920;92;25834;-80
2021/06/22 20:31:52;;;;;;;6.67;5.17;;;;;;;26.03;58.50;99825.09;2036121;93;26137;-80
2021/06/22 20:35:22;;;;;;;;;;;;;;;25.89;58.86;99823.95;2068638;93;25916;-76
2021/06/22 20:39:01;;;;;;;8.10;5.28;;;;;;;25.85;59.33;99822.81;2072368;95;26996;-79
2021/06/22 20:42:29;;;;;;;9.78;5.83;;;;;;;25.93;59.41;99823.80;2066116;93;25887;-78
2021/06/22 20:46:26;;;;;;;10.35;5.90;;;;;;;26.04;59.53;99821.47;2065873;94;25792;-78
2021/06/22 20:50:06;;;;;;;12.25;5.83;;;;;;;26.08;59.36;99816.36;1981270;97;25838;-79
2021/06/22 20:56:59;;;;;;;15.55;6.37;;;;;;;26.11;59.75;99811.72;2067412;92;25819;-76
2021/06/22 21:01:26;;;;;;;;;;;;;;;;;;;;;
2021/06/22 21:04:50;;;;;;;18.12;6.83;;;;;;;26.34;59.78;99765.63;2033752;94;25926;-84
2021/06/22 21:08:40;;;;;;;;;;;;;;;;;;;;;
2021/06/22 21:12:19;;;;;;;13.03;6.33;;;;;;;26.44;59.75;99799.43;2072637;92;25950;-75
2021/06/22 21:16:15;;;;;;;15.43;7.03;;;;;;;26.57;59.75;99813.45;2075906;93;25787;-80
2021/06/22 21:20:07;;;;;;;12.03;6.30;;;;;;;26.55;59.78;99821.15;2038838;95;25753;-81
2021/06/22 21:27:51;;;;;;;9.13;6.53;;;;;;;26.61;59.80;99792.30;1908471;98;25780;-83
2021/06/22 21:31:18;;;;;;;12.90;7.50;;;;;;;26.65;59.77;99808.17;2005377;94;25806;-82
2021/06/22 21:35:08;;;;;;;;;;;;;;;;;;;;;
2021/06/22 21:43:18;;;;;;;10.78;7.40;;;;;;;26.70;59.65;99852.46;1909600;100;25811;-79
2021/06/22 21:47:18;;;;;;;;;;;;;;;;;;;;;
2021/06/22 21:56:53;;;;;;;6.83;6.22;;;;;;;26.31;60.13;99862.84;1801691;106;27014;-76
2021/06/22 22:00:36;;;;;;;;;;;;;;;;;;;;;
2021/06/22 22:04:14;;;;;;;12.00;8.63;;;;;;;26.02;61.32;99789.50;1799234;106;26248;-78
2021/06/22 22:07:53;;;;;;;16.60;8.25;;;;;;;26.08;61.50;99815.88;1758834;108;25478;-90
2021/06/22 22:11:22;;;;;;;17.48;9.45;;;;;;;25.86;61.80;99830.77;1841698;104;25399;-81
2021/06/22 22:14:54;;;;;;;9.50;8.38;;;;;;;25.80;62.16;99812.84;1841702;105;26047;-82
2021/06/22 22:18:27;;;;;;;11.10;8.70;;;;;;;25.90;62.35;99808.78;1849983;105;25960;-77
2021/06/22 22:22:19;;;;;;;;;;;;;;;;;;;;;
2021/06/22 22:25:48;;;;;;;15.13;8.08;;;;;;;26.06;62.21;99802.23;1812765;105;25652;-84
2021/06/22 22:29:25;;;;;;;8.40;7.33;;;;;;;26.12;62.22;99800.56;1834244;105;26350;-76
2021/06/22 22:33:10;;;;;;;11.57;8.30;;;;;;;26.16;61.96;99808.84;1862276;103;26018;-87
2021/06/22 22:37:10;;;;;;;15.35;8.08;;;;;;;26.18;61.95;99800.27;1769092;109;25782;-85
2021/06/22 22:40:46;;;;;;;8.58;7.78;;;;;;;26.21;61.91;99805.93;1765447;109;25923;-75
2021/06/22 22:45:06;;;;;;;;;;;;;;;;;;;;;
2021/06/22 22:48:30;;;;;;;10.00;7.05;;;;;;;26.18;61.78;99820.30;1791633;106;25913;-80
2021/06/22 22:52:26;;;;;;;11.95;7.90;;;;;;;26.13;61.72;99821.02;1797910;108;26011;-79
2021/06/22 22:55:56;;;;;;;8.15;6.83;;;;;;;26.12;61.96;99832.18;1698889;113;26067;-75
2021/06/22 23:12:03;;;;;;;;;;;;;;;;;;;;;
2021/06/22 23:15:22;;;;;;;11.78;8.00;;;;;;;25.85;62.63;99859.76;1634767;116;26019;-78
2021/06/22 23:18:50;;;;;;;17.85;8.50;;;;;;;25.87;62.51;99851.19;1640567;117;25957;-78
2021/06/22 23:22:45;;;;;;;8.63;7.73;;;;;;;25.88;62.64;99853.38;1651781;115;26035;-79
2021/06/22 23:29:40;;;;;;;9.00;7.30;;;;;;;25.79;62.83;99833.31;1749558;111;25600;-75
2021/06/22 23:33:01;;;;;;;11.68;7.70;;;;;;;25.75;62.96;99835.73;1787065;108;25938;-81
2021/06/22 23:36:43;;;;;;;10.13;7.05;;;;;;;25.71;63.06;99834.13;1785437;103;25957;-80
2021/06/22 23:40:06;;;;;;;9.38;8.35;;;;;;;25.73;63.17;99830.06;1875171;103;25539;-77
2021/06/22 23:43:36;;;;;;;8.23;7.42;;;;;;;25.72;63.00;99833.66;1900153;102;25575;-81
2021/06/22 23:47:05;;;;;;;10.97;7.60;;;;;;;25.72;63.00;99825.64;1901533;103;25853;-75
2021/06/22 23:50:26;;;;;;;10.03;8.15;;;;;;;25.68;62.89;99827.59;1884413;101;25985;-82
2021/06/22 23:53:48;;;;;;;9.45;7.70;;;;;;;25.69;62.91;99814.67;1969487;99;25699;-82
2021/06/22 23:57:09;;;;;;;12.73;9.25;;;;;;;25.72;62.89;99810.52;2067978;93;25765;-80
